createdAt,value
2019-06-10T00:00:54.970Z,0.00
2019-06-10T00:01:53.730Z,0.00
2019-06-10T00:02:53.706Z,0.00
2019-06-10T00:03:53.690Z,0.00
2019-06-10T00:04:53.684Z,0.00
2019-06-10T00:05:53.671Z,0.00
2019-06-10T00:06:53.685Z,0.00
2019-06-10T00:07:53.698Z,0.00
2019-06-10T00:08:53.679Z,0.00
2019-06-10T00:09:53.616Z,0.00
2019-06-10T00:10:53.608Z,0.00
2019-06-10T00:11:53.627Z,0.00
2019-06-10T00:12:55.348Z,0.00
2019-06-10T00:13:53.592Z,0.00
2019-06-10T00:14:53.576Z,0.00
2019-06-10T00:15:53.553Z,0.00
2019-06-10T00:16:53.553Z,0.00
2019-06-10T00:18:13.220Z,0.00
2019-06-10T00:18:54.519Z,0.00
2019-06-10T00:19:53.516Z,0.00
2019-06-10T00:20:53.510Z,0.00
2019-06-10T00:21:53.530Z,0.00
2019-06-10T00:22:53.482Z,0.00
2019-06-10T00:23:53.473Z,0.00
2019-06-10T00:24:53.452Z,0.00
2019-06-10T00:25:53.455Z,0.00
2019-06-10T00:26:53.442Z,0.00
2019-06-10T00:27:53.428Z,0.00
2019-06-10T00:28:53.405Z,0.00
2019-06-10T00:29:53.406Z,0.00
2019-06-10T00:30:53.396Z,0.00
2019-06-10T00:31:53.383Z,0.00
2019-06-10T00:32:53.377Z,0.00
2019-06-10T00:33:53.367Z,0.00
2019-06-10T00:34:53.345Z,0.00
2019-06-10T00:35:53.324Z,0.00
2019-06-10T00:36:53.315Z,0.00
2019-06-10T00:37:53.342Z,0.00
2019-06-10T00:38:53.293Z,0.00
2019-06-10T00:39:53.296Z,0.00
2019-06-10T00:40:53.287Z,0.00
2019-06-10T00:41:53.261Z,0.00
2019-06-10T00:42:53.254Z,0.00
2019-06-10T00:43:53.271Z,0.00
2019-06-10T00:44:53.246Z,0.00
2019-06-10T00:45:53.248Z,0.00
2019-06-10T00:46:53.223Z,0.00
2019-06-10T00:48:07.637Z,0.00
2019-06-10T00:48:54.204Z,0.00
2019-06-10T00:49:53.180Z,0.00
2019-06-10T00:50:53.159Z,0.00
2019-06-10T00:51:53.158Z,0.00
2019-06-10T00:52:53.154Z,0.00
2019-06-10T00:53:53.142Z,0.00
2019-06-10T00:54:53.136Z,0.00
2019-06-10T00:55:53.116Z,0.00
2019-06-10T00:56:53.111Z,0.00
2019-06-10T00:57:53.096Z,0.00
2019-06-10T00:58:53.104Z,0.00
2019-06-10T00:59:53.069Z,0.00
2019-06-10T01:00:53.051Z,0.00
2019-06-10T01:01:53.042Z,0.00
2019-06-10T01:02:53.030Z,0.00
2019-06-10T01:03:53.037Z,0.00
2019-06-10T01:04:53.013Z,0.00
2019-06-10T01:05:53.005Z,0.00
2019-06-10T01:06:52.996Z,0.00
2019-06-10T01:07:52.991Z,0.00
2019-06-10T01:08:52.963Z,0.00
2019-06-10T01:09:52.976Z,0.00
2019-06-10T01:10:52.947Z,0.00
2019-06-10T01:11:52.944Z,0.00
2019-06-10T01:12:52.927Z,0.00
2019-06-10T01:13:52.907Z,0.00
2019-06-10T01:14:52.927Z,0.00
2019-06-10T01:15:52.904Z,0.00
2019-06-10T01:16:52.879Z,0.00
2019-06-10T01:17:52.878Z,0.00
2019-06-10T01:18:53.672Z,0.00
2019-06-10T01:19:52.852Z,0.00
2019-06-10T01:20:52.855Z,0.00
2019-06-10T01:21:52.843Z,0.00
2019-06-10T01:22:52.821Z,0.00
2019-06-10T01:23:52.807Z,0.00
2019-06-10T01:24:52.798Z,0.00
2019-06-10T01:25:52.796Z,0.00
2019-06-10T01:26:52.778Z,0.00
2019-06-10T01:27:52.757Z,0.00
2019-06-10T01:28:52.747Z,0.00
2019-06-10T01:29:52.742Z,0.00
2019-06-10T01:30:52.762Z,0.00
2019-06-10T01:31:52.708Z,0.00
2019-06-10T01:32:52.711Z,0.00
2019-06-10T01:33:52.693Z,0.00
2019-06-10T01:34:52.692Z,0.00
2019-06-10T01:35:52.679Z,0.00
2019-06-10T01:36:52.684Z,0.00
2019-06-10T01:37:52.647Z,0.00
2019-06-10T01:38:52.643Z,0.00
2019-06-10T01:39:52.639Z,0.00
2019-06-10T01:40:52.623Z,0.00
2019-06-10T01:41:52.618Z,0.00
2019-06-10T01:42:52.591Z,0.00
2019-06-10T01:43:52.594Z,0.00
2019-06-10T01:44:52.581Z,0.00
2019-06-10T01:45:52.566Z,0.00
2019-06-10T01:46:52.561Z,0.00
2019-06-10T01:47:52.547Z,0.00
2019-06-10T01:48:52.535Z,0.00
2019-06-10T01:49:52.522Z,0.00
2019-06-10T01:50:52.517Z,0.00
2019-06-10T01:51:52.509Z,0.00
2019-06-10T01:52:52.478Z,0.00
2019-06-10T01:53:52.467Z,0.00
2019-06-10T01:54:52.461Z,0.00
2019-06-10T01:55:52.460Z,0.00
2019-06-10T01:56:52.450Z,0.00
2019-06-10T01:57:52.459Z,0.00
2019-06-10T01:58:52.434Z,0.00
2019-06-10T01:59:52.408Z,0.00
2019-06-10T02:00:52.435Z,0.00
2019-06-10T02:01:52.405Z,0.00
2019-06-10T02:02:52.590Z,0.00
2019-06-10T02:03:52.364Z,0.00
2019-06-10T02:04:52.348Z,0.00
2019-06-10T02:05:52.343Z,0.00
2019-06-10T02:06:52.342Z,0.00
2019-06-10T02:07:52.337Z,0.00
2019-06-10T02:08:52.311Z,0.00
2019-06-10T02:09:52.295Z,0.00
2019-06-10T02:10:52.300Z,0.00
2019-06-10T02:11:52.270Z,0.00
2019-06-10T02:12:52.286Z,0.00
2019-06-10T02:13:52.248Z,0.00
2019-06-10T02:14:52.239Z,0.00
2019-06-10T02:15:52.241Z,0.00
2019-06-10T02:16:52.220Z,0.00
2019-06-10T02:17:52.202Z,0.00
2019-06-10T02:19:00.035Z,0.00
2019-06-10T02:19:53.191Z,4.00
2019-06-10T02:20:52.183Z,4.00
2019-06-10T02:21:52.172Z,4.00
2019-06-10T02:22:52.147Z,4.00
2019-06-10T02:23:52.243Z,4.00
2019-06-10T02:24:52.125Z,4.00
2019-06-10T02:25:52.114Z,4.00
2019-06-10T02:26:52.113Z,0.00
2019-06-10T02:27:52.101Z,4.00
2019-06-10T02:28:52.105Z,4.00
2019-06-10T02:29:52.080Z,4.00
2019-06-10T02:30:55.790Z,4.00
2019-06-10T02:31:52.413Z,8.00
2019-06-10T02:32:52.494Z,4.00
2019-06-10T02:33:52.643Z,8.00
2019-06-10T02:35:03.443Z,8.00
2019-06-10T02:35:53.856Z,12.00
2019-06-10T02:36:53.634Z,12.00
2019-06-10T02:37:54.003Z,8.00
2019-06-10T02:38:53.934Z,8.00
2019-06-10T02:39:54.197Z,4.00
2019-06-10T02:40:53.877Z,8.00
2019-06-10T02:41:53.511Z,8.00
2019-06-10T02:42:53.990Z,8.00
2019-06-10T02:43:53.468Z,8.00
2019-06-10T02:44:54.046Z,8.00
2019-06-10T02:45:53.077Z,8.00
2019-06-10T02:46:54.419Z,8.00
2019-06-10T02:47:53.304Z,12.00
2019-06-10T02:48:54.482Z,8.00
2019-06-10T02:50:01.338Z,8.00
2019-06-10T02:50:53.879Z,8.00
2019-06-10T02:51:53.798Z,12.00
2019-06-10T02:52:53.076Z,16.00
2019-06-10T02:53:53.822Z,28.00
2019-06-10T02:54:53.463Z,48.00
2019-06-10T02:55:53.901Z,72.00
2019-06-10T02:56:53.687Z,108.00
2019-06-10T02:57:53.319Z,128.00
2019-06-10T02:58:53.497Z,132.00
2019-06-10T02:59:54.453Z,132.00
2019-06-10T03:00:54.612Z,140.00
2019-06-10T03:01:53.666Z,144.00
2019-06-10T03:02:53.061Z,148.00
2019-06-10T03:03:54.228Z,160.00
2019-06-10T03:04:53.628Z,172.00
2019-06-10T03:05:53.722Z,184.00
2019-06-10T03:06:54.251Z,204.00
2019-06-10T03:07:53.296Z,220.00
2019-06-10T03:08:54.926Z,240.00
2019-06-10T03:09:53.807Z,252.00
2019-06-10T03:10:54.438Z,280.00
2019-06-10T03:11:53.477Z,284.00
2019-06-10T03:12:52.815Z,232.00
2019-06-10T03:13:53.122Z,184.00
2019-06-10T03:14:52.569Z,188.00
2019-06-10T03:15:52.253Z,280.00
2019-06-10T03:16:52.748Z,356.00
2019-06-10T03:17:52.139Z,320.00
2019-06-10T03:18:52.526Z,284.00
2019-06-10T03:19:53.569Z,320.00
2019-06-10T03:20:52.845Z,328.00
2019-06-10T03:21:52.190Z,332.00
2019-06-10T03:22:52.519Z,384.00
2019-06-10T03:23:53.145Z,420.00
2019-06-10T03:24:52.408Z,408.00
2019-06-10T03:25:52.734Z,372.00
2019-06-10T03:26:52.189Z,316.00
2019-06-10T03:27:52.532Z,264.00
2019-06-10T03:28:52.036Z,232.00
2019-06-10T03:29:52.695Z,228.00
2019-06-10T03:30:55.354Z,248.00
2019-06-10T03:31:55.246Z,272.00
2019-06-10T03:32:55.360Z,308.00
2019-06-10T03:33:54.426Z,340.00
2019-06-10T03:34:54.878Z,400.00
2019-06-10T03:35:52.640Z,384.00
2019-06-10T03:36:53.361Z,348.00
2019-06-10T03:37:52.817Z,368.00
2019-06-10T03:38:53.681Z,420.00
2019-06-10T03:39:53.102Z,504.00
2019-06-10T03:40:52.456Z,476.00
2019-06-10T03:41:52.794Z,516.00
2019-06-10T03:42:52.037Z,600.00
2019-06-10T03:43:53.112Z,608.00
2019-06-10T03:44:52.572Z,536.00
2019-06-10T03:45:53.154Z,444.00
2019-06-10T03:46:52.337Z,364.00
2019-06-10T03:47:52.704Z,300.00
2019-06-10T03:48:52.664Z,252.00
2019-06-10T03:49:53.458Z,216.00
2019-06-10T03:50:52.440Z,184.00
2019-06-10T03:51:52.938Z,164.00
2019-06-10T03:52:52.456Z,148.00
2019-06-10T03:53:53.106Z,144.00
2019-06-10T03:54:52.520Z,148.00
2019-06-10T03:55:52.652Z,148.00
2019-06-10T03:56:52.116Z,148.00
2019-06-10T03:57:52.610Z,176.00
2019-06-10T03:58:52.119Z,200.00
2019-06-10T03:59:52.778Z,224.00
2019-06-10T04:00:52.234Z,236.00
2019-06-10T04:01:52.891Z,260.00
2019-06-10T04:02:53.106Z,284.00
2019-06-10T04:03:52.986Z,324.00
2019-06-10T04:04:52.336Z,380.00
2019-06-10T04:05:52.694Z,452.00
2019-06-10T04:06:53.215Z,496.00
2019-06-10T04:07:52.696Z,524.00
2019-06-10T04:08:52.230Z,516.00
2019-06-10T04:09:52.590Z,536.00
2019-06-10T04:10:52.072Z,576.00
2019-06-10T04:11:52.863Z,644.00
2019-06-10T04:12:52.354Z,716.00
2019-06-10T04:13:53.358Z,812.00
2019-06-10T04:14:52.180Z,872.00
2019-06-10T04:15:53.310Z,920.00
2019-06-10T04:16:52.528Z,952.00
2019-06-10T04:17:53.013Z,960.00
2019-06-10T04:18:53.270Z,900.00
2019-06-10T04:20:07.563Z,848.00
2019-06-10T04:20:52.873Z,784.00
2019-06-10T04:21:53.045Z,716.00
2019-06-10T04:22:52.295Z,624.00
2019-06-10T04:23:52.797Z,556.00
2019-06-10T04:24:52.081Z,516.00
2019-06-10T04:25:52.687Z,484.00
2019-06-10T04:26:52.131Z,476.00
2019-06-10T04:27:52.430Z,456.00
2019-06-10T04:28:52.853Z,476.00
2019-06-10T04:29:52.385Z,528.00
2019-06-10T04:30:53.091Z,596.00
2019-06-10T04:31:52.408Z,648.00
2019-06-10T04:32:52.779Z,688.00
2019-06-10T04:33:52.356Z,700.00
2019-06-10T04:34:52.868Z,700.00
2019-06-10T04:35:52.018Z,680.00
2019-06-10T04:36:52.614Z,644.00
2019-06-10T04:37:52.042Z,604.00
2019-06-10T04:38:52.506Z,604.00
2019-06-10T04:39:52.918Z,640.00
2019-06-10T04:40:52.563Z,688.00
2019-06-10T04:41:52.985Z,764.00
2019-06-10T04:42:52.523Z,888.00
2019-06-10T04:43:53.007Z,1008.00
2019-06-10T04:44:52.530Z,1128.00
2019-06-10T04:45:52.607Z,1216.00
2019-06-10T04:46:52.067Z,1316.00
2019-06-10T04:47:52.439Z,1408.00
2019-06-10T04:48:53.027Z,1420.00
2019-06-10T04:49:52.242Z,1348.00
2019-06-10T04:50:53.165Z,1304.00
2019-06-10T04:51:52.377Z,1344.00
2019-06-10T04:52:52.763Z,1548.00
2019-06-10T04:53:52.481Z,1776.00
2019-06-10T04:54:52.602Z,1592.00
2019-06-10T04:55:52.271Z,1344.00
2019-06-10T04:56:52.752Z,1212.00
2019-06-10T04:57:52.120Z,1032.00
2019-06-10T04:58:52.572Z,932.00
2019-06-10T04:59:50.417Z,896.00
2019-06-10T05:00:52.333Z,848.00
2019-06-10T05:01:52.884Z,812.00
2019-06-10T05:02:52.247Z,804.00
2019-06-10T05:03:52.455Z,836.00
2019-06-10T05:04:50.353Z,920.00
2019-06-10T05:05:52.622Z,940.00
2019-06-10T05:06:52.538Z,852.00
2019-06-10T05:07:52.066Z,772.00
2019-06-10T05:08:50.296Z,660.00
2019-06-10T05:09:52.437Z,596.00
2019-06-10T05:10:50.286Z,552.00
2019-06-10T05:11:52.253Z,528.00
2019-06-10T05:12:52.446Z,556.00
2019-06-10T05:13:50.257Z,612.00
2019-06-10T05:14:52.521Z,696.00
2019-06-10T05:15:52.571Z,732.00
2019-06-10T05:16:50.227Z,852.00
2019-06-10T05:17:52.545Z,976.00
2019-06-10T05:18:54.058Z,1088.00
2019-06-10T05:19:50.217Z,1060.00
2019-06-10T05:20:57.719Z,1168.00
2019-06-10T05:21:52.413Z,1204.00
2019-06-10T05:22:50.164Z,1364.00
2019-06-10T05:23:52.158Z,1540.00
2019-06-10T05:24:50.145Z,1692.00
2019-06-10T05:25:52.636Z,2060.00
2019-06-10T05:26:52.547Z,2816.00
2019-06-10T05:27:52.138Z,3036.00
2019-06-10T05:28:52.268Z,2528.00
2019-06-10T05:29:50.075Z,2140.00
2019-06-10T05:30:50.069Z,2032.00
2019-06-10T05:31:52.175Z,2180.00
2019-06-10T05:32:52.268Z,2508.00
2019-06-10T05:33:50.036Z,3044.00
2019-06-10T05:34:52.655Z,3440.00
2019-06-10T05:35:50.011Z,3428.00
2019-06-10T05:36:52.423Z,3044.00
2019-06-10T05:37:49.991Z,2872.00
2019-06-10T05:38:52.379Z,3492.00
2019-06-10T05:39:49.959Z,3508.00
2019-06-10T05:40:51.994Z,3504.00
2019-06-10T05:41:50.839Z,3648.00
2019-06-10T05:42:49.983Z,3884.00
2019-06-10T05:43:52.099Z,3884.00
2019-06-10T05:44:52.278Z,3940.00
2019-06-10T05:45:49.901Z,4188.00
2019-06-10T05:46:49.885Z,4344.00
2019-06-10T05:47:49.874Z,4796.00
2019-06-10T05:48:52.403Z,5188.00
2019-06-10T05:49:49.855Z,5608.00
2019-06-10T05:51:00.117Z,5964.00
2019-06-10T05:51:52.672Z,6068.00
2019-06-10T05:52:51.919Z,5956.00
2019-06-10T05:53:49.813Z,5440.00
2019-06-10T05:54:51.993Z,4804.00
2019-06-10T05:55:49.808Z,4668.00
2019-06-10T05:56:52.053Z,4972.00
2019-06-10T05:57:49.764Z,5628.00
2019-06-10T05:58:52.268Z,5880.00
2019-06-10T05:59:52.144Z,6572.00
2019-06-10T06:00:49.742Z,7332.00
2019-06-10T06:01:49.719Z,7468.00
2019-06-10T06:02:52.118Z,7308.00
2019-06-10T06:03:49.699Z,7156.00
2019-06-10T06:04:49.685Z,7708.00
2019-06-10T06:05:49.670Z,7704.00
2019-06-10T06:06:49.666Z,7708.00
2019-06-10T06:08:04.149Z,7948.00
2019-06-10T06:08:53.162Z,7748.00
2019-06-10T06:09:49.631Z,7872.00
2019-06-10T06:10:49.617Z,7376.00
2019-06-10T06:11:49.599Z,6792.00
2019-06-10T06:12:49.603Z,5376.00
2019-06-10T06:13:52.043Z,4108.00
2019-06-10T06:14:49.590Z,3616.00
2019-06-10T06:15:49.568Z,3804.00
2019-06-10T06:16:49.552Z,4100.00
2019-06-10T06:18:04.047Z,4516.00
2019-06-10T06:18:52.485Z,4680.00
2019-06-10T06:19:49.554Z,5040.00
2019-06-10T06:20:49.518Z,5540.00
2019-06-10T06:21:49.540Z,5848.00
2019-06-10T06:22:49.489Z,6184.00
2019-06-10T06:23:49.493Z,6520.00
2019-06-10T06:24:49.493Z,7132.00
2019-06-10T06:25:49.458Z,7844.00
2019-06-10T06:26:49.437Z,8708.00
2019-06-10T06:27:49.437Z,9148.00
2019-06-10T06:28:49.422Z,8684.00
2019-06-10T06:29:49.411Z,10584.00
2019-06-10T06:30:49.428Z,10588.00
2019-06-10T06:31:49.386Z,11136.00
2019-06-10T06:32:49.380Z,11780.00
2019-06-10T06:33:49.356Z,11132.00
2019-06-10T06:34:49.360Z,10824.00
2019-06-10T06:35:49.355Z,10112.00
2019-06-10T06:36:49.327Z,10412.00
2019-06-10T06:37:49.318Z,10320.00
2019-06-10T06:38:49.307Z,10660.00
2019-06-10T06:39:49.307Z,11388.00
2019-06-10T06:40:49.322Z,11900.00
2019-06-10T06:41:49.284Z,11756.00
2019-06-10T06:42:49.340Z,11152.00
2019-06-10T06:43:49.248Z,10080.00
2019-06-10T06:44:49.306Z,8548.00
2019-06-10T06:45:49.248Z,7844.00
2019-06-10T06:46:49.305Z,7280.00
2019-06-10T06:47:49.259Z,6448.00
2019-06-10T06:48:52.982Z,5620.00
2019-06-10T06:49:49.184Z,4912.00
2019-06-10T06:51:02.050Z,4460.00
2019-06-10T06:51:56.085Z,4316.00
2019-06-10T06:53:19.039Z,4260.00
2019-06-10T06:53:53.029Z,4236.00
2019-06-10T06:54:50.131Z,4232.00
2019-06-10T06:55:49.121Z,4224.00
2019-06-10T06:56:49.138Z,4312.00
2019-06-10T06:57:49.105Z,4648.00
2019-06-10T06:58:49.094Z,5448.00
2019-06-10T06:59:49.084Z,6848.00
2019-06-10T07:01:03.781Z,8988.00
2019-06-10T07:01:52.329Z,11084.00
2019-06-10T07:02:49.059Z,12536.00
2019-06-10T07:03:49.031Z,14256.00
2019-06-10T07:04:49.032Z,17952.00
2019-06-10T07:05:49.052Z,22752.00
2019-06-10T07:06:49.012Z,23136.00
2019-06-10T07:07:48.997Z,23744.00
2019-06-10T07:09:03.746Z,26304.00
2019-06-10T07:09:49.974Z,30048.00
2019-06-10T07:10:48.954Z,30592.00
2019-06-10T07:11:48.963Z,30528.00
2019-06-10T07:12:48.951Z,21888.00
2019-06-10T07:13:48.938Z,17440.00
2019-06-10T07:14:48.938Z,28768.00
2019-06-10T07:15:48.908Z,17184.00
2019-06-10T07:16:48.903Z,17024.00
2019-06-10T07:17:48.902Z,16736.00
2019-06-10T07:18:50.282Z,15756.00
2019-06-10T07:19:48.861Z,15112.00
2019-06-10T07:20:48.886Z,13260.00
2019-06-10T07:22:06.644Z,11564.00
2019-06-10T07:22:49.863Z,9960.00
2019-06-10T07:23:48.840Z,9540.00
2019-06-10T07:24:48.810Z,9856.00
2019-06-10T07:25:48.799Z,8800.00
2019-06-10T07:26:52.184Z,8124.00
2019-06-10T07:27:49.792Z,7912.00
2019-06-10T07:28:48.778Z,7688.00
2019-06-10T07:29:48.744Z,7512.00
2019-06-10T07:30:52.748Z,7068.00
2019-06-10T07:31:51.047Z,7560.00
2019-06-10T07:32:48.736Z,7424.00
2019-06-10T07:33:48.717Z,7200.00
2019-06-10T07:34:48.713Z,8244.00
2019-06-10T07:35:48.691Z,9696.00
2019-06-10T07:36:48.686Z,9732.00
2019-06-10T07:37:48.686Z,9712.00
2019-06-10T07:38:49.272Z,10260.00
2019-06-10T07:39:48.644Z,10368.00
2019-06-10T07:40:48.640Z,10444.00
2019-06-10T07:41:48.692Z,11752.00
2019-06-10T07:42:48.629Z,10296.00
2019-06-10T07:43:49.748Z,9628.00
2019-06-10T07:44:48.596Z,9036.00
2019-06-10T07:45:48.583Z,8184.00
2019-06-10T07:46:48.565Z,7872.00
2019-06-10T07:47:48.549Z,8728.00
2019-06-10T07:48:52.504Z,9760.00
2019-06-10T07:49:49.534Z,10104.00
2019-06-10T07:50:48.522Z,10508.00
2019-06-10T07:51:48.516Z,10692.00
2019-06-10T07:52:48.501Z,10556.00
2019-06-10T07:53:48.497Z,9964.00
2019-06-10T07:54:48.477Z,9308.00
2019-06-10T07:55:48.476Z,8980.00
2019-06-10T07:56:50.668Z,8412.00
2019-06-10T07:57:49.446Z,8152.00
2019-06-10T07:58:48.472Z,7984.00
2019-06-10T07:59:48.412Z,8348.00
2019-06-10T08:00:48.682Z,8708.00
2019-06-10T08:01:51.780Z,8636.00
2019-06-10T08:02:49.383Z,8664.00
2019-06-10T08:03:48.390Z,9440.00
2019-06-10T08:04:48.396Z,9776.00
2019-06-10T08:05:48.368Z,10524.00
2019-06-10T08:06:50.067Z,11824.00
2019-06-10T08:07:49.017Z,13576.00
2019-06-10T08:08:48.316Z,18208.00
2019-06-10T08:09:48.340Z,19136.00
2019-06-10T08:10:48.331Z,23488.00
2019-06-10T08:11:48.805Z,32192.00
2019-06-10T08:12:48.402Z,33120.00
2019-06-10T08:13:48.263Z,30688.00
2019-06-10T08:14:48.282Z,32448.00
2019-06-10T08:15:48.451Z,36928.00
2019-06-10T08:16:48.670Z,33472.00
2019-06-10T08:17:48.339Z,30048.00
2019-06-10T08:19:16.159Z,19328.00
2019-06-10T08:19:51.132Z,24192.00
2019-06-10T08:20:48.229Z,37824.00
2019-06-10T08:21:49.538Z,20768.00
2019-06-10T08:22:54.041Z,24640.00
2019-06-10T08:23:49.168Z,22400.00
2019-06-10T08:24:48.449Z,20352.00
2019-06-10T08:25:53.674Z,18624.00
2019-06-10T08:26:49.141Z,17344.00
2019-06-10T08:27:49.353Z,16128.00
2019-06-10T08:28:48.405Z,16224.00
2019-06-10T08:29:49.798Z,15232.00
2019-06-10T08:30:49.098Z,15176.00
2019-06-10T08:31:49.915Z,14852.00
2019-06-10T08:32:53.177Z,14440.00
2019-06-10T08:33:49.207Z,14012.00
2019-06-10T08:34:48.211Z,13228.00
2019-06-10T08:35:56.379Z,12504.00
2019-06-10T08:36:50.814Z,12096.00
2019-06-10T08:37:48.990Z,13520.00
2019-06-10T08:38:48.788Z,21440.00
2019-06-10T08:39:48.000Z,17472.00
2019-06-10T08:40:48.514Z,17248.00
2019-06-10T08:41:49.276Z,22624.00
2019-06-10T08:42:48.915Z,22048.00
2019-06-10T08:43:48.525Z,29920.00
2019-06-10T08:44:48.623Z,19520.00
2019-06-10T08:45:48.822Z,18464.00
2019-06-10T08:46:48.671Z,20448.00
2019-06-10T08:47:49.166Z,14904.00
2019-06-10T08:48:49.495Z,14056.00
2019-06-10T08:49:49.128Z,13544.00
2019-06-10T08:50:49.944Z,13360.00
2019-06-10T08:51:50.047Z,13424.00
2019-06-10T08:53:03.690Z,13488.00
2019-06-10T08:53:50.079Z,14000.00
2019-06-10T08:54:50.952Z,18080.00
2019-06-10T08:55:50.299Z,18368.00
2019-06-10T08:56:50.716Z,14664.00
2019-06-10T08:57:50.971Z,13676.00
2019-06-10T08:58:49.650Z,13052.00
2019-06-10T08:59:49.263Z,12936.00
2019-06-10T09:00:49.484Z,13076.00
2019-06-10T09:01:51.551Z,13308.00
2019-06-10T09:02:50.815Z,13544.00
2019-06-10T09:03:49.447Z,13824.00
2019-06-10T09:04:50.389Z,14108.00
2019-06-10T09:05:50.711Z,14344.00
2019-06-10T09:06:50.592Z,14476.00
2019-06-10T09:07:50.878Z,14044.00
2019-06-10T09:08:51.273Z,13964.00
2019-06-10T09:09:50.361Z,14140.00
2019-06-10T09:10:49.858Z,14248.00
2019-06-10T09:11:51.303Z,14416.00
2019-06-10T09:12:50.980Z,14408.00
2019-06-10T09:13:50.354Z,14328.00
2019-06-10T09:14:48.769Z,14636.00
2019-06-10T09:16:03.685Z,15116.00
2019-06-10T09:16:49.353Z,15376.00
2019-06-10T09:17:49.632Z,15356.00
2019-06-10T09:18:50.861Z,15092.00
2019-06-10T09:19:50.066Z,14656.00
2019-06-10T09:20:52.425Z,14264.00
2019-06-10T09:21:52.412Z,14016.00
2019-06-10T09:23:06.497Z,13908.00
2019-06-10T09:23:55.869Z,14060.00
2019-06-10T09:24:52.367Z,14444.00
2019-06-10T09:25:52.824Z,15052.00
2019-06-10T09:26:51.247Z,16704.00
2019-06-10T09:27:49.403Z,18464.00
2019-06-10T09:28:52.419Z,22688.00
2019-06-10T09:29:52.104Z,24672.00
2019-06-10T09:30:54.109Z,23872.00
2019-06-10T09:31:51.305Z,22304.00
2019-06-10T09:32:51.203Z,20800.00
2019-06-10T09:33:50.762Z,19744.00
2019-06-10T09:34:52.296Z,18368.00
2019-06-10T09:35:50.933Z,17984.00
2019-06-10T09:36:50.089Z,17568.00
2019-06-10T09:37:51.120Z,17184.00
2019-06-10T09:38:49.068Z,16896.00
2019-06-10T09:39:52.493Z,16992.00
2019-06-10T09:40:53.233Z,17408.00
2019-06-10T09:41:59.716Z,18240.00
2019-06-10T09:42:52.028Z,20704.00
2019-06-10T09:43:50.823Z,23744.00
2019-06-10T09:44:50.312Z,23744.00
2019-06-10T09:45:49.139Z,22592.00
2019-06-10T09:46:48.984Z,21600.00
2019-06-10T09:47:53.002Z,21792.00
2019-06-10T09:48:50.307Z,21632.00
2019-06-10T09:49:50.207Z,21472.00
2019-06-10T09:50:52.394Z,20736.00
2019-06-10T09:51:50.646Z,20224.00
2019-06-10T09:52:52.417Z,19744.00
2019-06-10T09:53:56.176Z,19264.00
2019-06-10T09:54:55.695Z,20640.00
2019-06-10T09:55:51.000Z,21120.00
2019-06-10T09:56:48.822Z,23264.00
2019-06-10T09:57:49.761Z,22624.00
2019-06-10T09:58:49.667Z,23264.00
2019-06-10T09:59:51.368Z,22656.00
2019-06-10T10:00:50.836Z,20384.00
2019-06-10T10:01:50.972Z,20864.00
2019-06-10T10:02:51.485Z,22592.00
2019-06-10T10:03:53.484Z,21920.00
2019-06-10T10:04:52.554Z,20544.00
2019-06-10T10:05:59.444Z,21568.00
2019-06-10T10:06:50.514Z,21088.00
2019-06-10T10:07:50.771Z,21312.00
2019-06-10T10:08:51.467Z,24384.00
2019-06-10T10:09:51.396Z,25696.00
2019-06-10T10:10:51.085Z,25920.00
2019-06-10T10:11:49.266Z,24896.00
2019-06-10T10:12:49.022Z,20032.00
2019-06-10T10:13:49.431Z,22496.00
2019-06-10T10:14:54.239Z,23776.00
2019-06-10T10:15:48.236Z,24000.00
2019-06-10T10:16:52.256Z,22208.00
2019-06-10T10:17:49.493Z,19296.00
2019-06-10T10:18:49.473Z,17568.00
2019-06-10T10:19:49.659Z,17056.00
2019-06-10T10:20:49.586Z,13672.00
2019-06-10T10:21:51.230Z,13752.00
2019-06-10T10:22:49.247Z,13324.00
2019-06-10T10:23:54.017Z,14604.00
2019-06-10T10:24:49.252Z,17632.00
2019-06-10T10:25:48.251Z,19904.00
2019-06-10T10:26:49.077Z,27360.00
2019-06-10T10:27:50.871Z,24672.00
2019-06-10T10:28:48.775Z,22144.00
2019-06-10T10:29:48.877Z,21504.00
2019-06-10T10:30:49.197Z,19680.00
2019-06-10T10:31:49.474Z,18464.00
2019-06-10T10:32:50.484Z,19904.00
2019-06-10T10:33:46.838Z,18816.00
2019-06-10T10:34:48.343Z,18336.00
2019-06-10T10:35:48.021Z,19840.00
2019-06-10T10:36:48.362Z,17312.00
2019-06-10T10:37:46.696Z,16896.00
2019-06-10T10:38:46.808Z,17312.00
2019-06-10T10:39:46.731Z,17376.00
2019-06-10T10:40:48.801Z,16352.00
2019-06-10T10:41:47.142Z,15256.00
2019-06-10T10:42:52.223Z,14784.00
2019-06-10T10:43:51.212Z,14596.00
2019-06-10T10:44:50.008Z,14424.00
2019-06-10T10:45:50.347Z,14160.00
2019-06-10T10:46:47.609Z,13840.00
2019-06-10T10:47:46.961Z,13584.00
2019-06-10T10:48:47.091Z,13244.00
2019-06-10T10:49:47.046Z,12876.00
2019-06-10T10:50:47.481Z,12716.00
2019-06-10T10:51:46.988Z,12684.00
2019-06-10T10:52:48.201Z,12584.00
2019-06-10T10:53:50.533Z,12200.00
2019-06-10T10:54:47.937Z,11824.00
2019-06-10T10:55:47.188Z,11688.00
2019-06-10T10:56:49.189Z,11732.00
2019-06-10T10:57:47.288Z,12004.00
2019-06-10T10:58:47.677Z,12260.00
2019-06-10T10:59:47.760Z,12348.00
2019-06-10T11:00:49.310Z,12340.00
2019-06-10T11:01:47.530Z,12228.00
2019-06-10T11:02:48.735Z,12284.00
2019-06-10T11:03:48.157Z,12680.00
2019-06-10T11:04:47.899Z,13396.00
2019-06-10T11:05:49.484Z,14264.00
2019-06-10T11:06:47.760Z,14708.00
2019-06-10T11:07:47.537Z,14720.00
2019-06-10T11:08:48.034Z,14488.00
2019-06-10T11:09:46.983Z,14300.00
2019-06-10T11:10:48.200Z,14392.00
2019-06-10T11:11:47.222Z,14756.00
2019-06-10T11:12:46.995Z,15052.00
2019-06-10T11:13:47.386Z,15056.00
2019-06-10T11:14:46.986Z,14880.00
2019-06-10T11:15:47.336Z,14628.00
2019-06-10T11:16:47.169Z,14240.00
2019-06-10T11:17:47.258Z,13828.00
2019-06-10T11:18:47.178Z,13544.00
2019-06-10T11:19:47.285Z,13416.00
2019-06-10T11:20:47.351Z,13320.00
2019-06-10T11:21:47.387Z,13332.00
2019-06-10T11:22:47.499Z,13444.00
2019-06-10T11:23:46.293Z,13648.00
2019-06-10T11:24:47.791Z,13960.00
2019-06-10T11:25:46.154Z,14428.00
2019-06-10T11:26:46.154Z,14848.00
2019-06-10T11:27:46.423Z,15028.00
2019-06-10T11:28:47.363Z,15220.00
2019-06-10T11:29:46.172Z,15424.00
2019-06-10T11:30:47.277Z,15508.00
2019-06-10T11:31:46.303Z,15648.00
2019-06-10T11:32:46.215Z,15808.00
2019-06-10T11:33:46.890Z,16128.00
2019-06-10T11:34:46.346Z,16320.00
2019-06-10T11:35:46.724Z,16416.00
2019-06-10T11:36:46.240Z,16480.00
2019-06-10T11:37:46.828Z,16448.00
2019-06-10T11:38:46.292Z,16608.00
2019-06-10T11:39:46.017Z,17152.00
2019-06-10T11:40:47.149Z,18976.00
2019-06-10T11:41:46.005Z,19424.00
2019-06-10T11:42:46.314Z,20736.00
2019-06-10T11:43:46.340Z,20928.00
2019-06-10T11:44:46.376Z,20320.00
2019-06-10T11:45:51.155Z,18912.00
2019-06-10T11:46:46.926Z,17728.00
2019-06-10T11:47:46.680Z,16672.00
2019-06-10T11:48:46.990Z,15448.00
2019-06-10T11:49:46.878Z,15392.00
2019-06-10T11:50:47.038Z,15184.00
2019-06-10T11:51:47.102Z,16000.00
2019-06-10T11:52:45.870Z,16416.00
2019-06-10T11:53:45.862Z,17760.00
2019-06-10T11:54:55.733Z,17248.00
2019-06-10T11:55:47.651Z,16768.00
2019-06-10T11:56:45.847Z,16864.00
2019-06-10T11:57:45.814Z,17216.00
2019-06-10T11:58:45.818Z,17600.00
2019-06-10T11:59:45.853Z,18176.00
2019-06-10T12:00:45.784Z,18208.00
2019-06-10T12:01:45.784Z,18496.00
2019-06-10T12:02:45.762Z,18048.00
2019-06-10T12:03:45.748Z,18048.00
2019-06-10T12:04:45.771Z,17888.00
2019-06-10T12:05:45.802Z,17344.00
2019-06-10T12:06:45.713Z,17152.00
2019-06-10T12:07:45.723Z,16608.00
2019-06-10T12:08:45.689Z,16128.00
2019-06-10T12:09:45.695Z,16160.00
2019-06-10T12:10:45.688Z,16352.00
2019-06-10T12:11:45.663Z,16736.00
2019-06-10T12:12:45.665Z,17024.00
2019-06-10T12:13:45.647Z,16512.00
2019-06-10T12:14:45.685Z,15240.00
2019-06-10T12:16:30.477Z,15172.00
2019-06-10T12:17:51.050Z,16064.00